createdAt,value
2023-03-18T00:00:00.691Z,20.00
2023-03-18T00:03:03.087Z,19.80
2023-03-18T00:06:09.654Z,20.00
2023-03-18T00:09:13.500Z,20.00
2023-03-18T00:12:15.487Z,20.20
2023-03-18T00:15:18.965Z,20.10
2023-03-18T00:18:20.935Z,20.10
2023-03-18T00:21:23.631Z,19.80
2023-03-18T00:24:27.844Z,19.90
2023-03-18T00:27:31.622Z,19.80
2023-03-18T00:30:37.379Z,19.70
2023-03-18T00:33:41.174Z,19.80
2023-03-18T00:36:45.671Z,19.80
2023-03-18T00:39:48.046Z,19.80
2023-03-18T00:42:57.577Z,19.70
2023-03-18T00:46:00.590Z,19.80
2023-03-18T00:49:06.312Z,19.80
2023-03-18T00:52:08.666Z,20.00
2023-03-18T00:55:11.071Z,19.80
2023-03-18T00:58:13.635Z,19.80
2023-03-18T01:01:17.862Z,19.80
2023-03-18T01:04:21.532Z,19.80
2023-03-18T01:07:24.228Z,19.90
2023-03-18T01:10:27.243Z,19.80
2023-03-18T01:13:30.135Z,19.80
2023-03-18T01:16:32.619Z,20.00
2023-03-18T01:19:35.861Z,20.40
2023-03-18T01:22:41.364Z,19.90
2023-03-18T01:25:44.671Z,19.90
2023-03-18T01:28:48.050Z,20.00
2023-03-18T01:31:51.405Z,19.90
2023-03-18T01:34:53.736Z,20.00
2023-03-18T01:37:55.742Z,19.90
2023-03-18T01:40:59.643Z,19.90
2023-03-18T01:44:02.214Z,20.10
2023-03-18T01:47:04.585Z,19.90
2023-03-18T01:50:06.832Z,19.80
2023-03-18T01:53:13.856Z,19.90
2023-03-18T01:56:17.964Z,20.00
2023-03-18T01:59:22.537Z,19.70
2023-03-18T02:02:26.136Z,19.70
2023-03-18T02:05:29.696Z,19.80
2023-03-18T02:08:31.693Z,19.80
2023-03-18T02:11:38.473Z,20.00
2023-03-18T02:14:41.059Z,19.80
2023-03-18T02:17:49.501Z,19.70
2023-03-18T02:21:03.607Z,19.80
2023-03-18T02:24:18.058Z,20.00
2023-03-18T02:27:25.699Z,19.80
2023-03-18T02:30:33.913Z,19.80
2023-03-18T02:33:39.651Z,19.60
2023-03-18T02:36:42.656Z,19.80
2023-03-18T02:39:44.734Z,19.80
2023-03-18T02:42:48.077Z,19.80
2023-03-18T02:46:08.237Z,19.70
2023-03-18T02:49:11.019Z,19.70
2023-03-18T02:52:13.102Z,19.50
2023-03-18T02:55:15.667Z,19.60
2023-03-18T02:58:17.968Z,19.70
2023-03-18T03:01:20.702Z,19.60
2023-03-18T03:04:25.622Z,19.60
2023-03-18T03:07:28.402Z,19.60
2023-03-18T03:10:30.897Z,19.70
2023-03-18T03:13:33.615Z,19.60
2023-03-18T03:16:39.535Z,19.70
2023-03-18T03:19:41.926Z,19.80
2023-03-18T03:22:44.755Z,19.70
2023-03-18T03:25:47.152Z,19.70
2023-03-18T03:28:49.305Z,19.70
2023-03-18T03:31:51.787Z,19.60
2023-03-18T03:34:53.789Z,19.80
2023-03-18T03:37:56.888Z,19.60
2023-03-18T03:40:59.018Z,19.60
2023-03-18T03:44:01.387Z,19.60
2023-03-18T03:47:04.058Z,19.50
2023-03-18T03:50:06.912Z,19.60
2023-03-18T03:53:10.474Z,19.60
2023-03-18T03:56:12.851Z,19.60
2023-03-18T03:59:14.983Z,19.60
2023-03-18T04:02:18.048Z,19.80
2023-03-18T04:05:24.141Z,19.70
2023-03-18T04:08:27.097Z,19.60
2023-03-18T04:11:29.849Z,19.50
2023-03-18T04:14:32.086Z,19.40
2023-03-18T04:17:35.105Z,19.40
2023-03-18T04:20:38.788Z,19.40
2023-03-18T04:23:41.034Z,19.30
2023-03-18T04:26:43.748Z,19.20
2023-03-18T04:29:46.623Z,19.20
2023-03-18T04:32:50.447Z,19.40
2023-03-18T04:35:53.489Z,19.10
2023-03-18T04:38:57.005Z,19.30
2023-03-18T04:41:59.018Z,19.20
2023-03-18T04:45:02.193Z,19.20
2023-03-18T04:48:04.418Z,19.20
2023-03-18T04:51:08.481Z,19.10
2023-03-18T04:54:12.338Z,19.10
2023-03-18T04:57:14.926Z,19.20
2023-03-18T05:00:21.496Z,19.20
2023-03-18T05:03:23.891Z,19.20
2023-03-18T05:06:29.075Z,19.10
2023-03-18T05:09:31.538Z,19.80
2023-03-18T05:12:34.252Z,19.20
2023-03-18T05:15:37.597Z,19.40
2023-03-18T05:18:41.174Z,19.20
2023-03-18T05:21:43.476Z,19.30
2023-03-18T05:24:46.171Z,19.30
2023-03-18T05:27:49.558Z,19.20
2023-03-18T05:30:52.367Z,19.10
2023-03-18T05:33:54.855Z,19.30
2023-03-18T05:36:57.759Z,19.20
2023-03-18T05:40:00.124Z,19.10
2023-03-18T05:43:04.191Z,19.30
2023-03-18T05:46:06.687Z,19.20
2023-03-18T05:49:08.910Z,19.20
2023-03-18T05:52:11.378Z,19.30
2023-03-18T05:55:15.053Z,19.10
2023-03-18T05:58:18.406Z,19.20
2023-03-18T06:01:20.483Z,19.20
2023-03-18T06:04:22.831Z,19.30
2023-03-18T06:07:24.903Z,19.80
2023-03-18T06:10:27.907Z,19.40
2023-03-18T06:13:30.837Z,19.30
2023-03-18T06:16:35.274Z,19.40
2023-03-18T06:19:38.127Z,19.50
2023-03-18T06:22:41.108Z,19.30
2023-03-18T06:25:43.254Z,19.30
2023-03-18T06:28:46.151Z,19.30
2023-03-18T06:31:48.118Z,19.40
2023-03-18T06:34:50.626Z,19.20
2023-03-18T06:37:53.191Z,19.20
2023-03-18T06:40:56.786Z,19.00
2023-03-18T06:43:59.172Z,19.10
2023-03-18T06:47:01.715Z,18.80
2023-03-18T06:50:03.862Z,18.70
2023-03-18T06:53:06.944Z,18.70
2023-03-18T06:56:09.952Z,18.70
2023-03-18T06:59:12.278Z,18.40
2023-03-18T07:02:15.403Z,18.60
2023-03-18T07:05:18.699Z,18.50
2023-03-18T07:08:21.039Z,18.30
2023-03-18T07:11:23.515Z,18.10
2023-03-18T07:14:28.395Z,18.20
2023-03-18T07:17:30.944Z,18.00
2023-03-18T07:20:34.377Z,17.90
2023-03-18T07:23:36.877Z,17.90
2023-03-18T07:26:39.237Z,18.00
2023-03-18T07:29:41.857Z,18.00
2023-03-18T07:32:45.921Z,17.80
2023-03-18T07:36:04.630Z,17.90
2023-03-18T07:39:10.168Z,17.80
2023-03-18T07:42:12.681Z,17.60
2023-03-18T07:45:14.715Z,17.60
2023-03-18T07:48:17.083Z,17.90
2023-03-18T07:51:19.202Z,17.80
2023-03-18T07:54:21.549Z,17.70
2023-03-18T07:57:24.157Z,17.70
2023-03-18T08:00:27.238Z,17.20
2023-03-18T08:03:29.323Z,17.20
2023-03-18T08:06:32.941Z,17.00
2023-03-18T08:09:35.025Z,17.10
2023-03-18T08:12:51.285Z,17.00
2023-03-18T08:15:56.230Z,17.00
2023-03-18T08:18:58.901Z,17.30
2023-03-18T08:22:01.321Z,17.00
2023-03-18T08:25:04.452Z,17.10
2023-03-18T08:28:07.668Z,17.10
2023-03-18T08:31:10.079Z,17.30
2023-03-18T08:34:12.274Z,17.20
2023-03-18T08:37:14.659Z,17.40
2023-03-18T08:40:16.741Z,17.20
2023-03-18T08:43:22.261Z,17.30
2023-03-18T08:46:24.614Z,17.10
2023-03-18T08:49:26.992Z,17.30
2023-03-18T08:52:28.978Z,17.40
2023-03-18T08:55:34.719Z,17.40
2023-03-18T08:58:36.981Z,17.00
2023-03-18T09:01:39.916Z,17.00
2023-03-18T09:04:42.043Z,17.10
2023-03-18T09:07:45.508Z,16.90
2023-03-18T09:10:48.052Z,17.20
2023-03-18T09:13:50.798Z,17.10
2023-03-18T09:16:53.968Z,17.10
2023-03-18T09:19:56.526Z,17.20
2023-03-18T09:22:59.330Z,17.00
2023-03-18T09:26:02.214Z,17.10
2023-03-18T09:29:04.305Z,16.80
2023-03-18T09:32:06.836Z,16.80
2023-03-18T09:35:12.564Z,16.80
2023-03-18T09:38:20.836Z,17.00
2023-03-18T09:41:48.267Z,17.00
2023-03-18T09:44:58.380Z,17.00
2023-03-18T09:48:28.733Z,16.70
2023-03-18T09:52:01.296Z,16.70
2023-03-18T09:55:23.371Z,17.30
2023-03-18T09:58:40.347Z,17.00
2023-03-18T10:01:44.272Z,17.20
2023-03-18T10:04:53.481Z,17.00
2023-03-18T10:07:59.431Z,17.10
2023-03-18T10:11:10.058Z,17.20
2023-03-18T10:14:27.257Z,17.60
2023-03-18T10:17:41.898Z,17.10
2023-03-18T10:21:08.299Z,17.00
2023-03-18T10:24:35.176Z,17.40
2023-03-18T10:27:53.830Z,17.20
2023-03-18T10:31:38.707Z,17.00
2023-03-18T10:35:21.812Z,16.90
2023-03-18T10:38:59.204Z,16.90
2023-03-18T10:42:47.159Z,16.90
2023-03-18T10:45:57.873Z,17.00
2023-03-18T10:49:23.948Z,16.80
2023-03-18T10:52:41.601Z,16.80
2023-03-18T10:56:06.566Z,17.20
2023-03-18T10:59:22.507Z,16.80
2023-03-18T11:02:42.389Z,17.00
2023-03-18T11:05:53.161Z,17.00
2023-03-18T11:09:34.176Z,16.90
2023-03-18T11:12:36.438Z,17.20
2023-03-18T11:15:44.669Z,17.00
2023-03-18T11:18:49.099Z,16.70
2023-03-18T11:22:10.167Z,16.90
2023-03-18T11:25:18.216Z,17.00
2023-03-18T11:28:23.511Z,16.70
2023-03-18T11:31:25.893Z,17.00
2023-03-18T11:34:30.620Z,16.90
2023-03-18T11:37:37.322Z,16.70
2023-03-18T11:40:40.256Z,16.90
2023-03-18T11:48:19.958Z,17.00
2023-03-18T11:51:24.649Z,16.70
2023-03-18T11:54:31.805Z,17.00
2023-03-18T11:57:33.720Z,16.80
2023-03-18T12:00:50.626Z,16.80
2023-03-18T12:04:10.448Z,17.00
2023-03-18T12:07:55.751Z,16.90
2023-03-18T12:11:09.999Z,16.80
2023-03-18T12:14:25.840Z,16.80
2023-03-18T12:17:44.179Z,16.80
2023-03-18T12:20:52.576Z,17.20
2023-03-18T12:24:05.502Z,16.80
2023-03-18T12:27:22.700Z,16.80
2023-03-18T12:30:34.151Z,16.80
2023-03-18T12:33:51.446Z,17.00
2023-03-18T12:37:08.586Z,16.80
2023-03-18T12:40:30.877Z,16.70
2023-03-18T12:43:47.932Z,16.70
2023-03-18T12:46:59.980Z,16.70
2023-03-18T12:50:27.862Z,16.70
2023-03-18T12:53:35.370Z,16.50
2023-03-18T12:56:44.292Z,16.50
2023-03-18T12:59:56.753Z,16.60
2023-03-18T13:03:11.368Z,16.70
2023-03-18T13:06:20.298Z,16.60
2023-03-18T13:09:31.783Z,16.80
2023-03-18T13:12:38.589Z,16.70
2023-03-18T13:15:49.462Z,16.90
2023-03-18T13:18:56.161Z,16.70
2023-03-18T13:22:27.191Z,16.40
2023-03-18T13:25:59.260Z,16.80
2023-03-18T13:29:22.929Z,16.70
2023-03-18T13:33:00.854Z,16.80
2023-03-18T13:36:40.475Z,16.80
2023-03-18T13:40:03.897Z,16.80
2023-03-18T13:43:11.135Z,17.00
2023-03-18T13:46:23.702Z,16.80
2023-03-18T13:49:30.308Z,16.60
2023-03-18T13:52:44.117Z,16.40
2023-03-18T13:55:53.633Z,17.00
2023-03-18T13:58:56.207Z,16.70
2023-03-18T14:02:18.134Z,16.70
2023-03-18T14:05:33.934Z,16.80
2023-03-18T14:08:44.625Z,16.70
2023-03-18T14:11:47.847Z,16.80
2023-03-18T14:14:56.764Z,16.90
2023-03-18T14:18:20.300Z,16.90
2023-03-18T14:22:35.085Z,17.30
2023-03-18T14:25:42.193Z,17.40
2023-03-18T14:29:10.769Z,17.10
2023-03-18T14:32:34.121Z,17.30
2023-03-18T14:35:49.807Z,17.30
2023-03-18T14:39:19.964Z,17.10
2023-03-18T14:42:52.739Z,17.20
2023-03-18T14:46:01.839Z,17.30
2023-03-18T14:49:28.748Z,17.40
2023-03-18T14:52:35.535Z,17.40
2023-03-18T14:55:38.307Z,17.90
2023-03-18T14:58:40.937Z,17.40
2023-03-18T15:01:46.769Z,17.80
2023-03-18T15:04:58.100Z,17.20
2023-03-18T15:08:00.434Z,17.40
2023-03-18T15:11:06.049Z,17.70
2023-03-18T15:14:27.811Z,17.60
2023-03-18T15:17:30.495Z,17.80
2023-03-18T15:20:36.276Z,17.50
2023-03-18T15:23:48.266Z,17.50
2023-03-18T15:27:07.068Z,17.60
2023-03-18T15:30:50.112Z,17.60
2023-03-18T15:34:20.967Z,17.70
2023-03-18T15:37:34.481Z,17.90
2023-03-18T15:40:47.485Z,17.80
2023-03-18T15:44:13.612Z,17.70
2023-03-18T15:47:52.492Z,17.70
2023-03-18T15:51:00.749Z,17.80
2023-03-18T15:54:29.543Z,17.70
2023-03-18T15:57:38.946Z,17.90
2023-03-18T16:00:41.715Z,17.90
2023-03-18T16:03:47.952Z,18.00
2023-03-18T16:06:52.464Z,17.90
2023-03-18T16:09:54.794Z,18.00
2023-03-18T16:13:01.948Z,17.80
2023-03-18T16:16:08.322Z,17.90
2023-03-18T16:19:30.977Z,18.00
2023-03-18T16:22:34.184Z,17.90
2023-03-18T16:25:36.200Z,17.90
2023-03-18T16:28:39.469Z,17.90
2023-03-18T16:31:44.020Z,18.20
2023-03-18T16:34:46.984Z,18.50
2023-03-18T16:37:49.546Z,18.30
2023-03-18T16:40:54.735Z,18.80
2023-03-18T16:43:56.966Z,18.20
2023-03-18T16:46:59.365Z,18.70
2023-03-18T16:50:01.390Z,18.50
2023-03-18T16:53:13.731Z,19.40
2023-03-18T16:56:18.358Z,19.10
2023-03-18T16:59:20.718Z,19.50
2023-03-18T17:02:35.252Z,19.30
2023-03-18T17:05:37.789Z,19.20
2023-03-18T17:08:40.139Z,19.00
2023-03-18T17:11:43.455Z,20.10
2023-03-18T17:14:55.385Z,20.20
2023-03-18T17:18:00.721Z,20.90
2023-03-18T17:21:05.390Z,20.50
2023-03-18T17:24:08.007Z,21.00
2023-03-18T17:27:16.082Z,20.70
2023-03-18T17:30:24.088Z,21.10
2023-03-18T17:33:30.995Z,21.10
2023-03-18T17:36:33.413Z,21.60
2023-03-18T17:39:36.561Z,21.00
2023-03-18T17:42:41.163Z,21.30
2023-03-18T17:45:43.174Z,21.10
2023-03-18T17:48:46.268Z,21.20
2023-03-18T17:51:48.999Z,21.50
2023-03-18T17:54:51.841Z,21.10
2023-03-18T17:57:53.921Z,21.30
2023-03-18T18:01:15.440Z,21.30
2023-03-18T18:04:20.623Z,21.10
2023-03-18T18:07:23.644Z,21.50
2023-03-18T18:10:26.001Z,21.60
2023-03-18T18:13:29.189Z,21.50
2023-03-18T18:16:31.323Z,21.40
2023-03-18T18:19:33.790Z,21.50
2023-03-18T18:22:44.500Z,21.30
2023-03-18T18:25:46.761Z,21.30
2023-03-18T18:28:51.348Z,21.80
2023-03-18T18:31:54.082Z,21.60
2023-03-18T18:34:56.874Z,21.50
2023-03-18T18:37:59.351Z,21.80
2023-03-18T18:41:07.884Z,21.80
2023-03-18T18:44:10.304Z,21.70
2023-03-18T18:47:21.729Z,21.30
2023-03-18T18:50:29.960Z,21.80
2023-03-18T18:53:36.556Z,22.00
2023-03-18T18:56:38.878Z,22.00
2023-03-18T18:59:40.928Z,22.10
2023-03-18T19:02:43.977Z,22.10
2023-03-18T19:05:49.148Z,22.20
2023-03-18T19:08:52.504Z,22.10
2023-03-18T19:11:56.442Z,22.10
2023-03-18T19:14:59.798Z,22.20
2023-03-18T19:18:02.030Z,22.00
2023-03-18T19:21:04.865Z,22.20
2023-03-18T19:24:31.501Z,22.20
2023-03-18T19:27:34.038Z,22.30
2023-03-18T19:30:36.272Z,22.00
2023-03-18T19:33:39.683Z,22.30
2023-03-18T19:36:44.408Z,22.30
2023-03-18T19:39:49.432Z,22.00
2023-03-18T19:42:51.510Z,22.20
2023-03-18T19:45:53.886Z,22.20
2023-03-18T19:48:56.069Z,22.00
2023-03-18T19:51:58.508Z,22.00
2023-03-18T19:55:04.516Z,22.10
2023-03-18T19:58:07.700Z,22.20
2023-03-18T20:01:09.738Z,22.30
2023-03-18T20:04:15.814Z,22.10
2023-03-18T20:07:20.233Z,22.20
2023-03-18T20:10:22.929Z,22.10
2023-03-18T20:13:25.044Z,22.20
2023-03-18T20:16:33.461Z,22.20
2023-03-18T20:19:37.129Z,22.30
2023-03-18T20:22:42.489Z,22.40
2023-03-18T20:25:46.478Z,22.40
2023-03-18T20:28:53.791Z,22.40
2023-03-18T20:31:56.644Z,22.40
2023-03-18T20:34:59.321Z,22.40
2023-03-18T20:38:17.466Z,22.30
2023-03-18T20:41:20.215Z,22.40
2023-03-18T20:44:22.281Z,22.40
2023-03-18T20:47:24.571Z,22.50
2023-03-18T20:50:31.166Z,22.40
2023-03-18T20:53:33.520Z,22.50
2023-03-18T20:56:35.983Z,22.20
2023-03-18T20:59:38.292Z,22.30
2023-03-18T21:02:41.688Z,22.40
2023-03-18T21:05:43.983Z,22.40
2023-03-18T21:08:46.006Z,22.40
2023-03-18T21:11:48.837Z,22.50
2023-03-18T21:14:51.142Z,22.40
2023-03-18T21:17:54.107Z,22.50
2023-03-18T21:20:57.027Z,22.50
2023-03-18T21:23:59.379Z,22.60
2023-03-18T21:27:05.181Z,22.40
2023-03-18T21:30:09.963Z,22.40
2023-03-18T21:33:26.241Z,22.60
2023-03-18T21:36:29.258Z,22.50
2023-03-18T21:39:32.255Z,22.60
2023-03-18T21:42:35.449Z,22.60
2023-03-18T21:45:37.774Z,22.70
2023-03-18T21:48:40.504Z,22.60
2023-03-18T21:51:43.177Z,22.60
2023-03-18T21:54:46.848Z,22.70
2023-03-18T21:57:49.624Z,22.60
2023-03-18T22:00:56.466Z,22.60
2023-03-18T22:03:58.886Z,22.60
2023-03-18T22:07:01.725Z,22.50
2023-03-18T22:10:06.219Z,22.40
2023-03-18T22:13:17.540Z,22.60
2023-03-18T22:16:21.104Z,22.60
2023-03-18T22:19:24.358Z,22.50
2023-03-18T22:22:35.228Z,22.40
2023-03-18T22:25:37.615Z,22.50
2023-03-18T22:28:40.812Z,22.50
2023-03-18T22:31:43.154Z,22.50
2023-03-18T22:34:45.247Z,22.30
2023-03-18T22:37:48.033Z,22.40
2023-03-18T22:40:52.909Z,22.50
2023-03-18T22:43:55.778Z,22.50
2023-03-18T22:46:57.810Z,22.40
2023-03-18T22:50:00.262Z,22.60
2023-03-18T22:53:05.981Z,22.60
2023-03-18T22:56:14.296Z,22.50
2023-03-18T22:59:16.258Z,22.30
2023-03-18T23:02:25.156Z,22.30
2023-03-18T23:05:27.294Z,22.30
2023-03-18T23:08:29.992Z,22.40
2023-03-18T23:11:32.124Z,22.20
2023-03-18T23:14:34.341Z,22.30
2023-03-18T23:17:36.360Z,22.40
2023-03-18T23:20:38.642Z,22.40
2023-03-18T23:23:41.177Z,22.30
2023-03-18T23:26:43.461Z,22.20
2023-03-18T23:29:45.947Z,22.40
2023-03-18T23:32:48.237Z,22.30
2023-03-18T23:35:50.294Z,22.30
2023-03-18T23:38:52.620Z,22.40
2023-03-18T23:41:54.626Z,22.20
2023-03-18T23:44:57.007Z,22.20
2023-03-18T23:47:59.052Z,22.30
2023-03-18T23:51:04.168Z,22.10
2023-03-18T23:54:06.724Z,22.00
2023-03-18T23:57:10.760Z,22.20
